createdAt,value
2023-02-03T00:00:50.849Z,3.78
2023-02-03T00:01:50.908Z,3.78
2023-02-03T00:02:50.891Z,3.78
2023-02-03T00:03:50.831Z,3.79
2023-02-03T00:04:50.807Z,3.78
2023-02-03T00:05:50.787Z,3.78
2023-02-03T00:06:50.795Z,3.76
2023-02-03T00:07:50.807Z,3.79
2023-02-03T00:08:50.782Z,3.80
2023-02-03T00:09:50.781Z,3.86
2023-02-03T00:10:50.773Z,3.87
2023-02-03T00:11:50.746Z,3.90
2023-02-03T00:12:50.712Z,3.90
2023-02-03T00:13:50.714Z,3.86
2023-02-03T00:14:50.707Z,3.87
2023-02-03T00:15:50.686Z,3.87
2023-02-03T00:16:50.705Z,3.88
2023-02-03T00:17:50.671Z,3.88
2023-02-03T00:18:50.699Z,3.88
2023-02-03T00:19:50.650Z,3.86
2023-02-03T00:20:50.645Z,3.86
2023-02-03T00:21:50.655Z,3.84
2023-02-03T00:22:50.628Z,3.87
2023-02-03T00:23:50.625Z,3.88
2023-02-03T00:24:50.634Z,3.90
2023-02-03T00:25:50.650Z,3.91
2023-02-03T00:26:50.599Z,3.93
2023-02-03T00:27:50.611Z,3.94
2023-02-03T00:28:50.633Z,3.94
2023-02-03T00:29:50.561Z,3.96
2023-02-03T00:30:50.556Z,3.96
2023-02-03T00:31:50.595Z,3.96
2023-02-03T00:32:50.525Z,3.97
2023-02-03T00:33:50.514Z,3.97
2023-02-03T00:34:50.484Z,3.94
2023-02-03T00:35:50.495Z,3.91
2023-02-03T00:36:50.489Z,3.91
2023-02-03T00:37:50.485Z,3.88
2023-02-03T00:38:50.515Z,3.86
2023-02-03T00:39:50.450Z,3.84
2023-02-03T00:40:50.438Z,3.84
2023-02-03T00:41:50.485Z,3.87
2023-02-03T00:42:50.435Z,3.86
2023-02-03T00:43:50.419Z,3.86
2023-02-03T00:44:50.408Z,3.84
2023-02-03T00:45:50.424Z,3.87
2023-02-03T00:46:50.385Z,3.88
2023-02-03T00:47:50.387Z,3.90
2023-02-03T00:48:50.368Z,3.88
2023-02-03T00:49:50.339Z,3.87
2023-02-03T00:50:50.378Z,3.86
2023-02-03T00:51:50.357Z,3.86
2023-02-03T00:52:50.334Z,3.86
2023-02-03T00:53:50.357Z,3.86
2023-02-03T00:54:50.332Z,3.84
2023-02-03T00:55:50.322Z,3.80
2023-02-03T00:56:50.294Z,3.80
2023-02-03T00:57:50.270Z,3.80
2023-02-03T00:58:50.310Z,3.79
2023-02-03T00:59:50.259Z,3.84
2023-02-03T01:00:50.258Z,3.86
2023-02-03T01:01:50.257Z,3.87
2023-02-03T01:02:50.209Z,3.88
2023-02-03T01:03:50.257Z,3.91
2023-02-03T01:04:50.217Z,3.91
2023-02-03T01:05:50.193Z,3.94
2023-02-03T01:06:50.170Z,3.94
2023-02-03T01:07:50.199Z,3.98
2023-02-03T01:08:50.199Z,3.97
2023-02-03T01:09:50.163Z,3.97
2023-02-03T01:10:50.152Z,3.97
2023-02-03T01:11:50.163Z,3.94
2023-02-03T01:12:50.140Z,3.94
2023-02-03T01:13:50.125Z,3.91
2023-02-03T01:14:50.110Z,3.90
2023-02-03T01:15:50.120Z,3.88
2023-02-03T01:16:50.137Z,3.88
2023-02-03T01:17:50.070Z,3.88
2023-02-03T01:18:50.134Z,3.88
2023-02-03T01:19:50.071Z,3.87
2023-02-03T01:20:50.084Z,3.88
2023-02-03T01:21:50.040Z,3.91
2023-02-03T01:22:50.059Z,3.90
2023-02-03T01:23:50.049Z,3.94
2023-02-03T01:24:50.029Z,3.94
2023-02-03T01:25:50.004Z,3.97
2023-02-03T01:26:50.009Z,3.94
2023-02-03T01:27:50.031Z,3.91
2023-02-03T01:28:50.001Z,3.91
2023-02-03T01:29:50.030Z,3.93
2023-02-03T01:30:50.056Z,3.90
2023-02-03T01:31:50.034Z,3.90
2023-02-03T01:32:49.921Z,3.91
2023-02-03T01:33:49.947Z,3.90
2023-02-03T01:34:49.912Z,3.90
2023-02-03T01:35:49.968Z,3.91
2023-02-03T01:36:49.903Z,3.93
2023-02-03T01:37:49.922Z,3.96
2023-02-03T01:38:49.898Z,3.97
2023-02-03T01:39:49.897Z,3.97
2023-02-03T01:40:49.880Z,3.96
2023-02-03T01:41:49.854Z,3.97
2023-02-03T01:42:49.847Z,3.97
2023-02-03T01:43:49.831Z,3.94
2023-02-03T01:44:49.799Z,3.94
2023-02-03T01:45:49.861Z,3.93
2023-02-03T01:46:49.781Z,3.96
2023-02-03T01:47:49.837Z,3.98
2023-02-03T01:48:49.793Z,3.98
2023-02-03T01:49:49.768Z,3.94
2023-02-03T01:50:49.747Z,3.94
2023-02-03T01:51:49.754Z,3.88
2023-02-03T01:52:49.730Z,3.90
2023-02-03T01:53:49.755Z,3.86
2023-02-03T01:54:49.734Z,3.87
2023-02-03T01:55:49.744Z,3.87
2023-02-03T01:56:49.715Z,3.88
2023-02-03T01:57:49.666Z,3.86
2023-02-03T01:58:49.703Z,3.83
2023-02-03T01:59:49.674Z,3.83
2023-02-03T02:00:49.672Z,3.86
2023-02-03T02:01:49.721Z,3.86
2023-02-03T02:02:49.685Z,3.84
2023-02-03T02:03:49.651Z,3.80
2023-02-03T02:04:49.635Z,3.76
2023-02-03T02:05:49.619Z,3.73
2023-02-03T02:06:49.579Z,3.72
2023-02-03T02:07:49.584Z,3.72
2023-02-03T02:08:49.608Z,3.73
2023-02-03T02:09:49.738Z,3.75
2023-02-03T02:10:49.568Z,3.79
2023-02-03T02:11:49.537Z,3.80
2023-02-03T02:12:49.564Z,3.84
2023-02-03T02:13:49.750Z,3.83
2023-02-03T02:14:49.538Z,3.86
2023-02-03T02:15:49.541Z,3.87
2023-02-03T02:16:49.499Z,3.87
2023-02-03T02:17:49.465Z,3.87
2023-02-03T02:18:49.518Z,3.87
2023-02-03T02:19:49.466Z,3.87
2023-02-03T02:20:49.474Z,3.84
2023-02-03T02:21:49.449Z,3.80
2023-02-03T02:22:49.439Z,3.79
2023-02-03T02:23:49.454Z,3.80
2023-02-03T02:24:49.419Z,3.80
2023-02-03T02:25:49.454Z,3.79
2023-02-03T02:26:49.399Z,3.80
2023-02-03T02:27:49.419Z,3.80
2023-02-03T02:28:49.398Z,3.78
2023-02-03T02:29:49.367Z,3.72
2023-02-03T02:30:49.454Z,3.73
2023-02-03T02:31:49.489Z,3.72
2023-02-03T02:32:49.356Z,3.72
2023-02-03T02:33:49.307Z,3.70
2023-02-03T02:34:49.325Z,3.66
2023-02-03T02:35:49.296Z,3.65
2023-02-03T02:36:49.495Z,3.65
2023-02-03T02:37:49.352Z,3.62
2023-02-03T02:38:49.282Z,3.65
2023-02-03T02:39:49.288Z,3.66
2023-02-03T02:40:49.239Z,3.65
2023-02-03T02:41:49.283Z,3.66
2023-02-03T02:42:49.241Z,3.68
2023-02-03T02:43:49.232Z,3.69
2023-02-03T02:44:49.224Z,3.68
2023-02-03T02:45:49.213Z,3.68
2023-02-03T02:46:49.198Z,3.58
2023-02-03T02:47:49.189Z,3.54
2023-02-03T02:48:49.164Z,3.54
2023-02-03T02:49:49.196Z,3.51
2023-02-03T02:50:49.198Z,3.48
2023-02-03T02:51:49.146Z,3.51
2023-02-03T02:52:49.139Z,3.51
2023-02-03T02:53:49.133Z,3.51
2023-02-03T02:54:49.107Z,3.52
2023-02-03T02:55:49.110Z,3.51
2023-02-03T02:56:49.164Z,3.50
2023-02-03T02:57:49.095Z,3.47
2023-02-03T02:58:49.081Z,3.43
2023-02-03T02:59:49.057Z,3.43
2023-02-03T03:00:49.054Z,3.45
2023-02-03T03:01:49.038Z,3.48
2023-02-03T03:02:49.095Z,3.47
2023-02-03T03:03:49.033Z,3.45
2023-02-03T03:04:49.052Z,3.47
2023-02-03T03:05:49.016Z,3.48
2023-02-03T03:06:49.006Z,3.47
2023-02-03T03:07:49.022Z,3.45
2023-02-03T03:08:48.968Z,3.48
2023-02-03T03:09:48.974Z,3.48
2023-02-03T03:10:48.934Z,3.48
2023-02-03T03:11:48.967Z,3.50
2023-02-03T03:12:48.939Z,3.51
2023-02-03T03:13:48.969Z,3.51
2023-02-03T03:14:48.923Z,3.54
2023-02-03T03:15:48.941Z,3.51
2023-02-03T03:16:48.906Z,3.50
2023-02-03T03:17:48.889Z,3.45
2023-02-03T03:18:48.881Z,3.47
2023-02-03T03:19:48.854Z,3.45
2023-02-03T03:20:48.892Z,3.50
2023-02-03T03:21:48.853Z,3.51
2023-02-03T03:22:48.860Z,3.51
2023-02-03T03:23:48.845Z,3.54
2023-02-03T03:24:48.814Z,3.54
2023-02-03T03:25:48.821Z,3.55
2023-02-03T03:26:48.818Z,3.58
2023-02-03T03:27:48.852Z,3.57
2023-02-03T03:28:48.811Z,3.58
2023-02-03T03:29:48.781Z,3.58
2023-02-03T03:30:48.820Z,3.57
2023-02-03T03:31:48.790Z,3.60
2023-02-03T03:32:48.745Z,3.61
2023-02-03T03:33:48.724Z,3.58
2023-02-03T03:34:48.736Z,3.58
2023-02-03T03:35:48.677Z,3.60
2023-02-03T03:36:48.695Z,3.62
2023-02-03T03:37:48.711Z,3.58
2023-02-03T03:38:48.656Z,3.55
2023-02-03T03:39:48.650Z,3.57
2023-02-03T03:40:48.649Z,3.58
2023-02-03T03:41:48.616Z,3.61
2023-02-03T03:42:48.645Z,3.60
2023-02-03T03:43:48.616Z,3.65
2023-02-03T03:44:48.617Z,3.66
2023-02-03T03:45:48.601Z,3.66
2023-02-03T03:46:48.670Z,3.66
2023-02-03T03:47:48.619Z,3.66
2023-02-03T03:48:48.569Z,3.68
2023-02-03T03:49:48.574Z,3.68
2023-02-03T03:50:48.562Z,3.66
2023-02-03T03:51:48.542Z,3.61
2023-02-03T03:52:48.527Z,3.60
2023-02-03T03:53:48.546Z,3.60
2023-02-03T03:54:48.495Z,3.60
2023-02-03T03:55:48.498Z,3.61
2023-02-03T03:56:48.493Z,3.60
2023-02-03T03:57:48.499Z,3.60
2023-02-03T03:58:48.457Z,3.58
2023-02-03T03:59:48.563Z,3.61
2023-02-03T04:00:48.441Z,3.62
2023-02-03T04:01:48.606Z,3.54
2023-02-03T04:02:48.548Z,3.54
2023-02-03T04:03:48.443Z,3.48
2023-02-03T04:04:48.449Z,3.50
2023-02-03T04:05:48.398Z,3.50
2023-02-03T04:06:48.402Z,3.54
2023-02-03T04:07:48.411Z,3.57
2023-02-03T04:08:48.474Z,3.52
2023-02-03T04:09:48.399Z,3.55
2023-02-03T04:10:48.339Z,3.58
2023-02-03T04:11:48.378Z,3.65
2023-02-03T04:12:48.321Z,3.65
2023-02-03T04:13:48.309Z,3.57
2023-02-03T04:14:48.320Z,3.57
2023-02-03T04:15:48.328Z,3.55
2023-02-03T04:16:48.301Z,3.52
2023-02-03T04:17:48.308Z,3.52
2023-02-03T04:18:48.278Z,3.60
2023-02-03T04:19:48.257Z,3.68
2023-02-03T04:20:48.250Z,3.69
2023-02-03T04:21:48.222Z,3.70
2023-02-03T04:22:48.251Z,3.73
2023-02-03T04:23:48.233Z,3.75
2023-02-03T04:24:48.193Z,3.78
2023-02-03T04:25:48.203Z,3.79
2023-02-03T04:26:48.207Z,3.83
2023-02-03T04:27:48.310Z,3.87
2023-02-03T04:28:48.172Z,3.88
2023-02-03T04:29:48.159Z,3.90
2023-02-03T04:30:48.221Z,3.93
2023-02-03T04:31:48.198Z,3.94
2023-02-03T04:32:48.126Z,3.94
2023-02-03T04:33:48.138Z,3.93
2023-02-03T04:34:48.172Z,3.93
2023-02-03T04:35:48.101Z,3.97
2023-02-03T04:36:48.083Z,4.00
2023-02-03T04:37:48.076Z,4.06
2023-02-03T04:38:48.074Z,4.14
2023-02-03T04:39:48.075Z,4.15
2023-02-03T04:40:48.057Z,4.18
2023-02-03T04:41:48.050Z,4.20
2023-02-03T04:42:48.025Z,4.23
2023-02-03T04:43:48.004Z,4.24
2023-02-03T04:44:48.018Z,4.24
2023-02-03T04:45:48.054Z,4.29
2023-02-03T04:46:47.991Z,4.30
2023-02-03T04:47:47.976Z,4.32
2023-02-03T04:48:47.979Z,4.33
2023-02-03T04:49:48.006Z,4.33
2023-02-03T04:50:47.949Z,4.32
2023-02-03T04:51:47.936Z,4.32
2023-02-03T04:52:47.947Z,4.36
2023-02-03T04:53:47.936Z,4.40
2023-02-03T04:54:47.919Z,4.42
2023-02-03T04:55:47.909Z,4.45
2023-02-03T04:56:47.876Z,4.47
2023-02-03T04:57:47.894Z,4.47
2023-02-03T04:58:47.880Z,4.50
2023-02-03T04:59:47.914Z,4.50
2023-02-03T05:00:47.851Z,4.54
2023-02-03T05:01:47.818Z,4.59
2023-02-03T05:02:47.835Z,4.63
2023-02-03T05:03:47.880Z,4.65
2023-02-03T05:04:47.826Z,4.63
2023-02-03T05:05:47.820Z,4.66
2023-02-03T05:06:47.790Z,4.69
2023-02-03T05:07:47.786Z,4.72
2023-02-03T05:08:47.746Z,4.70
2023-02-03T05:09:47.849Z,4.73
2023-02-03T05:10:47.754Z,4.75
2023-02-03T05:11:47.719Z,4.77
2023-02-03T05:12:47.735Z,4.82
2023-02-03T05:13:47.719Z,4.86
2023-02-03T05:14:47.749Z,4.86
2023-02-03T05:15:47.699Z,4.92
2023-02-03T05:16:47.728Z,4.91
2023-02-03T05:17:47.798Z,4.96
2023-02-03T05:18:47.679Z,4.97
2023-02-03T05:19:47.677Z,5.00
2023-02-03T05:20:47.675Z,5.03
2023-02-03T05:21:47.653Z,5.07
2023-02-03T05:22:47.608Z,5.07
2023-02-03T05:23:47.621Z,5.10
2023-02-03T05:24:47.619Z,5.17
2023-02-03T05:25:47.663Z,5.18
2023-02-03T05:26:47.601Z,5.20
2023-02-03T05:27:47.599Z,5.24
2023-02-03T05:28:47.551Z,5.27
2023-02-03T05:29:47.583Z,5.30
2023-02-03T05:30:47.571Z,5.31
2023-02-03T05:31:47.593Z,5.38
2023-02-03T05:32:47.511Z,5.39
2023-02-03T05:33:47.541Z,5.42
2023-02-03T05:34:47.534Z,5.46
2023-02-03T05:35:47.533Z,5.49
2023-02-03T05:36:47.481Z,5.49
2023-02-03T05:37:47.464Z,5.51
2023-02-03T05:38:47.462Z,5.56
2023-02-03T05:39:47.492Z,5.58
2023-02-03T05:40:47.457Z,5.65
2023-02-03T05:41:47.422Z,5.67
2023-02-03T05:42:47.420Z,5.67
2023-02-03T05:43:47.440Z,5.75
2023-02-03T05:44:47.433Z,5.74
2023-02-03T05:45:47.431Z,5.76
2023-02-03T05:46:47.406Z,5.79
2023-02-03T05:47:47.361Z,5.81
2023-02-03T05:48:47.358Z,5.83
2023-02-03T05:49:47.362Z,5.85
2023-02-03T05:50:47.353Z,5.90
2023-02-03T05:51:47.331Z,5.91
2023-02-03T05:52:47.341Z,5.94
2023-02-03T05:53:47.315Z,6.00
2023-02-03T05:54:47.303Z,6.01
2023-02-03T05:55:47.305Z,6.06
2023-02-03T05:56:47.273Z,6.12
2023-02-03T05:57:47.253Z,6.12
2023-02-03T05:58:47.243Z,6.17
2023-02-03T05:59:47.252Z,6.22
2023-02-03T06:00:47.249Z,6.25
2023-02-03T06:01:47.213Z,6.30
2023-02-03T06:02:47.235Z,6.34
2023-02-03T06:03:47.331Z,6.37
2023-02-03T06:04:47.216Z,6.41
2023-02-03T06:05:47.234Z,6.44
2023-02-03T06:06:47.183Z,6.46
2023-02-03T06:07:47.145Z,6.49
2023-02-03T06:08:47.260Z,6.54
2023-02-03T06:09:47.155Z,6.58
2023-02-03T06:10:47.169Z,6.59
2023-02-03T06:11:47.134Z,6.64
2023-02-03T06:12:47.111Z,6.67
2023-02-03T06:13:47.108Z,6.69
2023-02-03T06:14:47.118Z,6.71
2023-02-03T06:15:47.124Z,6.76
2023-02-03T06:16:47.170Z,6.76
2023-02-03T06:17:47.043Z,6.77
2023-02-03T06:18:47.099Z,6.80
2023-02-03T06:19:47.103Z,6.80
2023-02-03T06:20:46.997Z,6.80
2023-02-03T06:21:47.008Z,6.81
2023-02-03T06:22:47.034Z,6.88
2023-02-03T06:23:46.972Z,6.85
2023-02-03T06:24:46.927Z,6.88
2023-02-03T06:25:46.981Z,6.89
2023-02-03T06:26:46.957Z,6.88
2023-02-03T06:27:47.183Z,6.91
2023-02-03T06:28:46.992Z,6.92
2023-02-03T06:29:46.898Z,6.94
2023-02-03T06:30:47.034Z,6.95
2023-02-03T06:31:47.106Z,6.94
2023-02-03T06:32:46.867Z,6.98
2023-02-03T06:33:46.874Z,6.98
2023-02-03T06:34:46.853Z,6.99
2023-02-03T06:35:46.843Z,6.98
2023-02-03T06:36:46.836Z,6.99
2023-02-03T06:37:46.847Z,7.03
2023-02-03T06:38:46.800Z,7.05
2023-02-03T06:39:46.801Z,7.06
2023-02-03T06:40:46.780Z,7.06
2023-02-03T06:41:46.778Z,7.09
2023-02-03T06:42:46.790Z,7.10
2023-02-03T06:43:46.730Z,7.10
2023-02-03T06:44:46.760Z,7.15
2023-02-03T06:45:46.740Z,7.15
2023-02-03T06:46:46.741Z,7.15
2023-02-03T06:47:46.719Z,7.13
2023-02-03T06:48:46.701Z,7.12
2023-02-03T06:49:46.744Z,7.16
2023-02-03T06:50:48.668Z,7.15
2023-02-03T06:51:46.687Z,7.15
2023-02-03T06:52:46.672Z,7.17
2023-02-03T06:53:46.663Z,7.17
2023-02-03T06:54:46.892Z,7.21
2023-02-03T06:55:46.665Z,7.25
2023-02-03T06:56:46.654Z,7.28
2023-02-03T06:57:46.621Z,7.27
2023-02-03T06:58:46.593Z,7.30
2023-02-03T06:59:46.616Z,7.30
2023-02-03T07:00:46.613Z,7.27
2023-02-03T07:01:46.629Z,7.30
2023-02-03T07:02:46.680Z,7.30
2023-02-03T07:03:46.544Z,7.32
2023-02-03T07:04:46.558Z,7.31
2023-02-03T07:05:46.563Z,7.31
2023-02-03T07:06:46.583Z,7.31
2023-02-03T07:07:46.548Z,7.34
2023-02-03T07:08:46.494Z,7.35
2023-02-03T07:09:46.473Z,7.34
2023-02-03T07:10:46.539Z,7.39
2023-02-03T07:11:46.472Z,7.40
2023-02-03T07:12:46.484Z,7.40
2023-02-03T07:13:46.475Z,7.42
2023-02-03T07:14:46.427Z,7.40
2023-02-03T07:15:46.605Z,7.40
2023-02-03T07:16:46.618Z,7.42
2023-02-03T07:17:46.423Z,7.46
2023-02-03T07:18:47.903Z,7.48
2023-02-03T07:19:46.425Z,7.48
2023-02-03T07:20:46.423Z,7.48
2023-02-03T07:21:46.371Z,7.48
2023-02-03T07:22:46.376Z,7.46
2023-02-03T07:23:46.381Z,7.50
2023-02-03T07:24:46.437Z,7.49
2023-02-03T07:25:46.375Z,7.50
2023-02-03T07:26:46.352Z,7.50
2023-02-03T07:27:46.378Z,7.50
2023-02-03T07:28:46.415Z,7.49
2023-02-03T07:29:46.307Z,7.53
2023-02-03T07:30:46.446Z,7.53
2023-02-03T07:31:46.464Z,7.55
2023-02-03T07:32:46.268Z,7.55
2023-02-03T07:33:46.277Z,7.55
2023-02-03T07:34:46.252Z,7.57
2023-02-03T07:35:46.238Z,7.60
2023-02-03T07:36:46.242Z,7.55
2023-02-03T07:37:46.239Z,7.57
2023-02-03T07:38:46.180Z,7.58
2023-02-03T07:39:46.222Z,7.55
2023-02-03T07:40:46.207Z,7.60
2023-02-03T07:41:46.153Z,7.60
2023-02-03T07:42:46.161Z,7.63
2023-02-03T07:43:46.156Z,7.63
2023-02-03T07:44:46.163Z,7.63
2023-02-03T07:45:46.140Z,7.61
2023-02-03T07:46:46.149Z,7.64
2023-02-03T07:47:46.107Z,7.64
2023-02-03T07:48:46.120Z,7.64
2023-02-03T07:49:46.098Z,7.64
2023-02-03T07:50:46.084Z,7.69
2023-02-03T07:51:46.130Z,7.68
2023-02-03T07:52:46.050Z,7.71
2023-02-03T07:53:46.069Z,7.72
2023-02-03T07:54:46.069Z,7.71
2023-02-03T07:55:46.015Z,7.74
2023-02-03T07:56:46.042Z,7.79
2023-02-03T07:57:46.010Z,7.80
2023-02-03T07:58:45.986Z,7.83
2023-02-03T07:59:45.999Z,7.82
2023-02-03T08:00:45.973Z,7.80
2023-02-03T08:01:46.157Z,7.82
2023-02-03T08:02:45.984Z,7.82
2023-02-03T08:03:45.965Z,7.83
2023-02-03T08:04:45.952Z,7.83
2023-02-03T08:05:45.934Z,7.82
2023-02-03T08:06:46.005Z,7.83
2023-02-03T08:07:45.923Z,7.83
2023-02-03T08:08:45.910Z,7.85
2023-02-03T08:09:45.909Z,7.83
2023-02-03T08:10:45.883Z,7.83
2023-02-03T08:11:45.893Z,7.83
2023-02-03T08:12:45.903Z,7.85
2023-02-03T08:13:45.854Z,7.85
2023-02-03T08:14:45.854Z,7.85
2023-02-03T08:15:45.975Z,7.83
2023-02-03T08:16:45.831Z,7.85
2023-02-03T08:17:45.826Z,7.87
2023-02-03T08:18:45.814Z,7.86
2023-02-03T08:19:45.773Z,7.89
2023-02-03T08:20:45.782Z,7.85
2023-02-03T08:21:45.808Z,7.87
2023-02-03T08:22:45.766Z,7.89
2023-02-03T08:23:45.817Z,7.87
2023-02-03T08:24:45.742Z,7.87
2023-02-03T08:25:45.755Z,7.85
2023-02-03T08:26:45.749Z,7.85
2023-02-03T08:27:45.826Z,7.85
2023-02-03T08:28:45.747Z,7.85
2023-02-03T08:29:45.685Z,7.82
2023-02-03T08:30:45.745Z,7.80
2023-02-03T08:31:45.768Z,7.79
2023-02-03T08:32:45.663Z,7.79
2023-02-03T08:33:45.681Z,7.77
2023-02-03T08:34:45.836Z,7.79
2023-02-03T08:35:45.906Z,7.79
2023-02-03T08:36:45.749Z,7.79
2023-02-03T08:37:45.604Z,7.79
2023-02-03T08:38:45.626Z,7.77
2023-02-03T08:39:45.606Z,7.79
2023-02-03T08:40:45.617Z,7.80
2023-02-03T08:41:45.559Z,7.80
2023-02-03T08:42:45.590Z,7.83
2023-02-03T08:43:45.541Z,7.86
2023-02-03T08:44:45.527Z,7.83
2023-02-03T08:45:45.695Z,7.86
2023-02-03T08:46:45.507Z,7.86
2023-02-03T08:47:45.509Z,7.86
2023-02-03T08:48:45.498Z,7.86
2023-02-03T08:49:45.527Z,7.89
2023-02-03T08:50:45.489Z,7.89
2023-02-03T08:51:45.481Z,7.89
2023-02-03T08:52:45.466Z,7.92
2023-02-03T08:53:45.442Z,7.93
2023-02-03T08:54:45.442Z,7.98
2023-02-03T08:55:45.475Z,7.97
2023-02-03T08:56:45.441Z,7.98
2023-02-03T08:57:45.400Z,7.95
2023-02-03T08:58:45.436Z,7.98
2023-02-03T08:59:45.420Z,7.97
2023-02-03T09:00:45.425Z,7.98
2023-02-03T09:01:45.392Z,7.93
2023-02-03T09:02:45.370Z,7.93
2023-02-03T09:03:45.372Z,7.93
2023-02-03T09:04:45.407Z,7.97
2023-02-03T09:05:45.338Z,7.93
2023-02-03T09:06:45.383Z,7.95
2023-02-03T09:07:45.319Z,7.95
2023-02-03T09:08:45.303Z,7.95
2023-02-03T09:09:45.302Z,7.93
2023-02-03T09:10:45.380Z,7.95
2023-02-03T09:11:45.292Z,7.97
2023-02-03T09:12:45.267Z,7.98
2023-02-03T09:13:45.262Z,7.97
2023-02-03T09:14:45.228Z,7.97
2023-02-03T09:15:45.232Z,7.97
2023-02-03T09:16:45.301Z,7.97
2023-02-03T09:17:45.204Z,7.97
2023-02-03T09:18:45.221Z,7.98
2023-02-03T09:19:45.224Z,8.00
2023-02-03T09:20:45.161Z,8.01
2023-02-03T09:21:46.516Z,8.07
2023-02-03T09:22:45.177Z,8.08
2023-02-03T09:23:45.162Z,8.11
2023-02-03T09:24:45.139Z,8.08
2023-02-03T09:25:47.840Z,8.08
2023-02-03T09:26:45.131Z,8.11
2023-02-03T09:27:45.141Z,8.10
2023-02-03T09:28:45.095Z,8.10
2023-02-03T09:29:45.140Z,8.12
2023-02-03T09:30:45.155Z,8.11
2023-02-03T09:31:45.181Z,8.15
2023-02-03T09:32:45.064Z,8.16
2023-02-03T09:33:45.064Z,8.15
2023-02-03T09:34:45.046Z,8.16
2023-02-03T09:35:45.037Z,8.18
2023-02-03T09:36:45.027Z,8.19
2023-02-03T09:37:45.005Z,8.18
2023-02-03T09:38:45.103Z,8.22
2023-02-03T09:39:45.008Z,8.22
2023-02-03T09:40:44.978Z,8.25
2023-02-03T09:41:45.021Z,8.20
2023-02-03T09:42:44.936Z,8.20
2023-02-03T09:43:44.946Z,8.19
2023-02-03T09:44:44.950Z,8.20
2023-02-03T09:45:44.931Z,8.20
2023-02-03T09:46:44.951Z,8.20
2023-02-03T09:47:44.884Z,8.18
2023-02-03T09:48:44.893Z,8.18
2023-02-03T09:49:44.911Z,8.15
2023-02-03T09:50:44.891Z,8.16
2023-02-03T09:51:44.887Z,8.16
2023-02-03T09:52:44.901Z,8.16
2023-02-03T09:53:44.840Z,8.18
2023-02-03T09:54:44.875Z,8.19
2023-02-03T09:55:44.817Z,8.20
2023-02-03T09:56:44.840Z,8.22
2023-02-03T09:57:44.812Z,8.28
2023-02-03T09:58:44.815Z,8.29
2023-02-03T09:59:44.796Z,8.26
2023-02-03T10:00:44.844Z,8.30
2023-02-03T10:01:44.789Z,8.34
2023-02-03T10:02:44.808Z,8.36
2023-02-03T10:03:44.770Z,8.38
2023-02-03T10:04:44.721Z,8.38
2023-02-03T10:05:44.755Z,8.40
2023-02-03T10:06:44.762Z,8.44
2023-02-03T10:07:44.690Z,8.44
2023-02-03T10:08:44.727Z,8.44
2023-02-03T10:09:44.692Z,8.48
2023-02-03T10:10:44.691Z,8.50
2023-02-03T10:11:44.675Z,8.52
2023-02-03T10:12:44.670Z,8.55
2023-02-03T10:13:44.707Z,8.56
2023-02-03T10:14:44.693Z,8.55
2023-02-03T10:15:44.669Z,8.58
2023-02-03T10:16:44.626Z,8.56
2023-02-03T10:17:44.617Z,8.55
2023-02-03T10:18:44.600Z,8.53
2023-02-03T10:19:44.640Z,8.58
2023-02-03T10:20:44.585Z,8.56
2023-02-03T10:21:44.557Z,8.59
2023-02-03T10:22:44.577Z,8.61
2023-02-03T10:23:44.590Z,8.58
2023-02-03T10:24:44.554Z,8.61
2023-02-03T10:25:44.579Z,8.63
2023-02-03T10:26:44.529Z,8.61
2023-02-03T10:27:44.564Z,8.62
2023-02-03T10:28:44.520Z,8.68
2023-02-03T10:29:44.491Z,8.63
2023-02-03T10:30:44.597Z,8.68
2023-02-03T10:31:44.627Z,8.68
2023-02-03T10:32:44.495Z,8.74
2023-02-03T10:33:44.448Z,8.76
2023-02-03T10:34:44.442Z,8.79
2023-02-03T10:35:44.515Z,8.80
2023-02-03T10:36:44.433Z,8.79
2023-02-03T10:37:44.434Z,8.81
2023-02-03T10:38:44.391Z,8.86
2023-02-03T10:39:44.390Z,8.86
2023-02-03T10:40:44.460Z,8.83
2023-02-03T10:41:44.362Z,8.86
2023-02-03T10:42:44.376Z,8.81
2023-02-03T10:43:44.356Z,8.77
2023-02-03T10:44:44.354Z,8.74
2023-02-03T10:45:44.328Z,8.59
2023-02-03T10:46:44.413Z,8.52
2023-02-03T10:47:44.318Z,8.29
2023-02-03T10:48:44.299Z,8.12
2023-02-03T10:49:44.855Z,8.07
2023-02-03T10:50:44.301Z,7.98
2023-02-03T10:51:44.250Z,7.97
2023-02-03T10:52:44.264Z,7.95
2023-02-03T10:53:44.229Z,7.97
2023-02-03T10:54:44.223Z,7.85
2023-02-03T10:55:44.243Z,7.82
2023-02-03T10:56:44.208Z,7.93
2023-02-03T10:57:44.222Z,7.98
2023-02-03T10:58:44.194Z,8.07
2023-02-03T10:59:44.167Z,8.12
2023-02-03T11:00:44.172Z,8.20
2023-02-03T11:01:44.227Z,8.28
2023-02-03T11:02:44.293Z,8.40
2023-02-03T11:03:44.166Z,8.40
2023-02-03T11:04:44.144Z,8.38
2023-02-03T11:05:44.123Z,8.36
2023-02-03T11:06:44.148Z,8.34
2023-02-03T11:07:44.113Z,8.33
2023-02-03T11:08:44.102Z,8.34
2023-02-03T11:09:44.115Z,8.38
2023-02-03T11:10:44.068Z,8.38
2023-02-03T11:11:44.094Z,8.40
2023-02-03T11:12:44.062Z,8.37
2023-02-03T11:13:44.048Z,8.45
2023-02-03T11:14:44.021Z,8.47
2023-02-03T11:15:44.144Z,8.48
2023-02-03T11:16:44.624Z,8.48
2023-02-03T11:17:44.005Z,8.45
2023-02-03T11:18:44.019Z,8.45
2023-02-03T11:19:43.975Z,8.48
2023-02-03T11:20:43.991Z,8.50
2023-02-03T11:21:43.999Z,8.48
2023-02-03T11:22:43.948Z,8.50
2023-02-03T11:23:43.938Z,8.50
2023-02-03T11:24:43.925Z,8.48
2023-02-03T11:25:43.927Z,8.50
2023-02-03T11:26:44.004Z,8.50
2023-02-03T11:27:43.940Z,8.47
2023-02-03T11:28:43.899Z,8.48
2023-02-03T11:29:43.893Z,8.47
2023-02-03T11:30:43.952Z,8.48
2023-02-03T11:31:43.968Z,8.44
2023-02-03T11:32:43.832Z,8.44
2023-02-03T11:33:43.853Z,8.44
2023-02-03T11:34:43.866Z,8.40
2023-02-03T11:35:43.823Z,8.40
2023-02-03T11:36:43.867Z,8.37
2023-02-03T11:37:43.803Z,8.36
2023-02-03T11:38:43.883Z,8.40
2023-02-03T11:39:43.785Z,8.37
2023-02-03T11:40:43.764Z,8.40
2023-02-03T11:41:43.818Z,8.41
2023-02-03T11:42:43.753Z,8.41
2023-02-03T11:43:43.774Z,8.40
2023-02-03T11:44:43.763Z,8.43
2023-02-03T11:45:43.777Z,8.43
2023-02-03T11:46:43.789Z,8.48
2023-02-03T11:47:43.747Z,8.52
2023-02-03T11:48:43.736Z,8.56
2023-02-03T11:49:43.673Z,8.53
2023-02-03T11:50:43.687Z,8.53
2023-02-03T11:51:43.663Z,8.52
2023-02-03T11:52:43.697Z,8.58
2023-02-03T11:53:56.330Z,8.58
2023-02-03T11:54:44.626Z,8.66
2023-02-03T11:55:43.650Z,8.62
2023-02-03T11:56:43.619Z,8.63
2023-02-03T11:57:43.620Z,8.68
2023-02-03T11:58:43.602Z,8.66
2023-02-03T11:59:43.632Z,8.62
2023-02-03T12:00:43.568Z,8.66
2023-02-03T12:01:43.567Z,8.66
2023-02-03T12:02:43.678Z,8.70
2023-02-03T12:03:43.592Z,8.65
2023-02-03T12:04:43.576Z,8.66
2023-02-03T12:05:43.543Z,8.70
2023-02-03T12:06:43.536Z,8.71
2023-02-03T12:07:43.584Z,8.77
2023-02-03T12:08:43.480Z,8.84
2023-02-03T12:09:43.497Z,8.81
2023-02-03T12:10:43.461Z,8.84
2023-02-03T12:11:43.461Z,8.92
2023-02-03T12:12:43.500Z,8.95
2023-02-03T12:13:43.456Z,8.98
2023-02-03T12:14:43.455Z,9.04
2023-02-03T12:15:43.435Z,9.08
2023-02-03T12:16:43.399Z,9.11
2023-02-03T12:17:43.430Z,9.08
2023-02-03T12:18:43.380Z,9.10
2023-02-03T12:19:43.406Z,9.11
2023-02-03T12:20:43.360Z,9.17
2023-02-03T12:21:43.381Z,9.14
2023-02-03T12:22:43.389Z,9.17
2023-02-03T12:23:43.372Z,9.14
2023-02-03T12:24:43.341Z,9.14
2023-02-03T12:25:43.317Z,9.11
2023-02-03T12:26:43.319Z,9.13
2023-02-03T12:27:43.416Z,9.18
2023-02-03T12:28:43.370Z,9.20
2023-02-03T12:29:43.348Z,9.18
2023-02-03T12:30:43.380Z,9.23
2023-02-03T12:31:43.333Z,9.28
2023-02-03T12:32:43.283Z,9.36
2023-02-03T12:33:43.232Z,9.33
2023-02-03T12:34:43.213Z,9.47
2023-02-03T12:35:43.226Z,9.51
2023-02-03T12:36:43.201Z,9.40
2023-02-03T12:37:43.215Z,9.42
2023-02-03T12:38:43.208Z,9.42
2023-02-03T12:39:43.203Z,9.33
2023-02-03T12:40:43.228Z,9.36
2023-02-03T12:41:43.169Z,9.40
2023-02-03T12:42:43.154Z,9.42
2023-02-03T12:43:43.136Z,9.47
2023-02-03T12:44:43.132Z,9.51
2023-02-03T12:45:43.268Z,9.61
2023-02-03T12:46:43.113Z,9.64
2023-02-03T12:47:43.217Z,9.64
2023-02-03T12:48:43.234Z,9.65
2023-02-03T12:49:43.149Z,9.57
2023-02-03T12:50:43.276Z,9.47
2023-02-03T12:51:43.039Z,9.36
2023-02-03T12:52:43.025Z,9.29
2023-02-03T12:53:43.027Z,9.26
2023-02-03T12:54:43.045Z,9.13
2023-02-03T12:55:43.030Z,9.08
2023-02-03T12:56:42.997Z,8.94
2023-02-03T12:57:42.978Z,8.77
2023-02-03T12:58:42.990Z,8.05
2023-02-03T12:59:42.996Z,6.84
2023-02-03T13:00:43.019Z,5.71
2023-02-03T13:01:42.989Z,5.15
2023-02-03T13:02:43.006Z,4.86
2023-02-03T13:03:42.937Z,4.77
2023-02-03T13:04:42.930Z,4.84
2023-02-03T13:05:42.943Z,4.86
2023-02-03T13:06:42.889Z,4.97
2023-02-03T13:07:42.897Z,5.12
2023-02-03T13:08:42.890Z,5.15
2023-02-03T13:09:42.997Z,5.21
2023-02-03T13:10:42.879Z,5.30
2023-02-03T13:11:42.895Z,5.36
2023-02-03T13:12:42.898Z,5.43
2023-02-03T13:13:42.839Z,5.46
2023-02-03T13:14:42.817Z,5.58
2023-02-03T13:15:42.893Z,5.71
2023-02-03T13:16:42.861Z,5.81
2023-02-03T13:17:42.791Z,5.91
2023-02-03T13:18:42.776Z,5.97